»·PEaware :: DAL947 KSLC-KRNO

DAL947 :: KSLC-KRNO

FLIGHT INFORMATION

Flight Status: Arrived
Operator:
Delta Air Lines
More flights by this operator :: More flights under this callsign
Pilot: John C. (18682)
Aircraft: BOEING 737-800
(B738)
More flights by this aircraft type
Origin: KSLC Salt Lake City Intl
United States
Destination: KRNO Reno/Tahoe Intl
United States
More flights between these airports :: More routes between these airports
Route: DEZRT1 BAM MYBAD MYBAD2
File this flight plan on PilotEdge
Remarks:
Altitude:
(Current/Filed)
38,000ft
Speed:
(Current/Filed)
455kts
Departed: 15-Apr-19 05:21 PM
Arrived: 15-Apr-19 06:32 PM
Distance/Time
Traveled:
366nm/1:11
Distance/Time
To Go:
Arrived

Flight Plot

Page will automatically refresh every two minutes.

Flight plan parsing failed; only flown route is shown


Map Options




Map Legend


Flown Route
Filed Route
Departure Airport
Arrival Airport
Navaid (VOR, NDB)
Fix

Horizontal Profiles

Position Reports

Time Latitude Longitude Heading Altitude Ground
Speed
15-Apr-19 17:00 40.787330 -111.978975 117 4235ft 0kts
15-Apr-19 17:01 40.787330 -111.978975 117 4235ft 0kts
15-Apr-19 17:01 40.787330 -111.978975 117 4235ft 0kts
15-Apr-19 17:02 40.787330 -111.978975 117 4235ft 0kts
15-Apr-19 17:04 40.787330 -111.978975 117 4235ft 0kts
15-Apr-19 17:04 40.787330 -111.978975 117 4234ft 0kts
15-Apr-19 17:05 40.787330 -111.978975 117 4234ft 0kts
15-Apr-19 17:06 40.787330 -111.978975 117 4234ft 0kts
15-Apr-19 17:07 40.787330 -111.978975 117 4234ft 0kts
15-Apr-19 17:08 40.787330 -111.978975 117 4234ft 0kts
15-Apr-19 17:09 40.787330 -111.978975 117 4234ft 0kts
15-Apr-19 17:10 40.787448 -111.979279 117 4235ft 2kts
15-Apr-19 17:11 40.787702 -111.979931 117 4235ft 1kts
15-Apr-19 17:12 40.787543 -111.980330 18 4235ft 0kts
15-Apr-19 17:13 40.787543 -111.980330 18 4234ft 0kts
15-Apr-19 17:14 40.787883 -111.980169 20 4235ft 8kts
15-Apr-19 17:15 40.789720 -111.978070 84 4234ft 6kts
15-Apr-19 17:16 40.793074 -111.977504 351 4234ft 22kts
15-Apr-19 17:17 40.798783 -111.978109 355 4235ft 20kts
15-Apr-19 17:18 40.805198 -111.978394 354 4234ft 24kts
15-Apr-19 17:19 40.807219 -111.978335 36 4234ft 3kts
15-Apr-19 17:20 40.804670 -111.976623 174 4235ft 57kts
15-Apr-19 17:21 40.762482 -111.977240 219 5140ft 188kts
15-Apr-19 17:22 40.770878 -112.042112 305 6543ft 237kts
15-Apr-19 17:23 40.812845 -112.113089 305 9302ft 253kts
15-Apr-19 17:24 40.835714 -112.206574 278 10688ft 305kts
15-Apr-19 17:25 40.853838 -112.321571 277 13118ft 327kts
15-Apr-19 17:26 40.870674 -112.436949 268 15777ft 331kts
15-Apr-19 17:27 40.863689 -112.559395 260 18461ft 336kts
15-Apr-19 17:28 40.853902 -112.683151 258 20925ft 343kts
15-Apr-19 17:29 40.843480 -112.810756 259 23192ft 351kts
15-Apr-19 17:30 40.841572 -112.934007 264 25119ft 362kts
15-Apr-19 17:31 40.841185 -113.068772 264 26999ft 369kts
15-Apr-19 17:32 40.840911 -113.205794 264 28710ft 375kts
15-Apr-19 17:33 40.840797 -113.345656 265 30272ft 382kts
15-Apr-19 17:34 40.840870 -113.487100 265 31973ft 380kts
15-Apr-19 17:35 40.841095 -113.626080 264 33775ft 372kts
15-Apr-19 17:36 40.841398 -113.762315 264 35284ft 367kts
15-Apr-19 17:37 40.841243 -113.897480 263 36534ft 364kts
15-Apr-19 17:38 40.839518 -114.032151 263 37550ft 364kts
15-Apr-19 17:39 40.837981 -114.169012 264 37849ft 380kts
15-Apr-19 17:40 40.836630 -114.309826 264 37844ft 379kts
15-Apr-19 17:41 40.835407 -114.450472 264 37842ft 379kts
15-Apr-19 17:42 40.834365 -114.590350 264 37841ft 379kts
15-Apr-19 17:43 40.833355 -114.729773 262 37851ft 379kts
15-Apr-19 17:44 40.819823 -114.867693 256 37810ft 375kts
15-Apr-19 17:45 40.803867 -115.004409 257 37775ft 375kts
15-Apr-19 17:46 40.788102 -115.141428 256 37773ft 373kts
15-Apr-19 17:47 40.772557 -115.277902 256 37771ft 372kts
15-Apr-19 17:48 40.757238 -115.413672 256 37768ft 372kts
15-Apr-19 17:49 40.739908 -115.549082 256 37766ft 372kts
15-Apr-19 17:50 40.722375 -115.684066 255 37778ft 372kts
15-Apr-19 17:51 40.704958 -115.819218 255 37776ft 372kts
15-Apr-19 17:52 40.687703 -115.954763 256 37774ft 372kts
15-Apr-19 17:53 40.670646 -116.089988 256 37772ft 372kts
15-Apr-19 17:54 40.653736 -116.225307 256 37765ft 372kts
15-Apr-19 17:55 40.637013 -116.360405 256 37747ft 372kts
15-Apr-19 17:56 40.620407 -116.495825 256 37738ft 372kts
15-Apr-19 17:57 40.603926 -116.631514 256 37737ft 372kts
15-Apr-19 17:58 40.587608 -116.766539 256 37748ft 372kts
15-Apr-19 17:59 40.571457 -116.902130 256 37746ft 372kts
15-Apr-19 18:00 40.554556 -117.037614 255 37744ft 374kts
15-Apr-19 18:01 40.536856 -117.173681 255 37742ft 376kts
15-Apr-19 18:02 40.519336 -117.309771 255 37740ft 375kts
15-Apr-19 18:03 40.501963 -117.445940 255 37749ft 375kts
15-Apr-19 18:04 40.484719 -117.582366 255 37768ft 376kts
15-Apr-19 18:05 40.467630 -117.718363 255 37783ft 375kts
15-Apr-19 18:06 40.450688 -117.854822 255 37763ft 375kts
15-Apr-19 18:07 40.434236 -117.988745 255 36782ft 367kts
15-Apr-19 18:08 40.417943 -118.122554 255 35767ft 368kts
15-Apr-19 18:09 40.401749 -118.256854 255 34741ft 371kts
15-Apr-19 18:10 40.379748 -118.388954 242 33717ft 366kts
15-Apr-19 18:11 40.326703 -118.505679 237 31136ft 376kts
15-Apr-19 18:12 40.272548 -118.622582 238 28260ft 370kts
15-Apr-19 18:13 40.226443 -118.737036 241 26257ft 349kts
15-Apr-19 18:14 40.182890 -118.847142 241 24454ft 328kts
15-Apr-19 18:15 40.141773 -118.951330 242 22589ft 321kts
15-Apr-19 18:16 40.100574 -119.055986 242 20744ft 319kts
15-Apr-19 18:17 40.060987 -119.156765 243 18954ft 303kts
15-Apr-19 18:18 40.022997 -119.252299 243 17320ft 293kts
15-Apr-19 18:19 39.984056 -119.349611 243 15623ft 294kts
15-Apr-19 18:20 39.947836 -119.440325 244 14038ft 280kts
15-Apr-19 18:21 39.907032 -119.528386 239 12910ft 271kts
15-Apr-19 18:22 39.869381 -119.606588 240 11260ft 252kts
15-Apr-19 18:23 39.828121 -119.669092 231 9780ft 211kts
15-Apr-19 18:24 39.789270 -119.726879 231 8943ft 210kts
15-Apr-19 18:25 39.740280 -119.767700 192 8080ft 221kts
15-Apr-19 18:26 39.678213 -119.768736 186 7435ft 221kts
15-Apr-19 18:27 39.619759 -119.768764 187 6657ft 176kts
15-Apr-19 18:28 39.574584 -119.769028 187 5741ft 154kts
15-Apr-19 18:29 39.531028 -119.769158 186 4858ft 153kts
15-Apr-19 18:30 39.495225 -119.769354 182 4407ft 43kts
15-Apr-19 18:31 39.493817 -119.770687 359 4408ft 12kts
15-Apr-19 18:32 39.499424 -119.770666 0 4408ft 18kts
15-Apr-19 18:33 39.503734 -119.770687 359 4410ft 11kts
15-Apr-19 18:34 39.505916 -119.771652 272 4412ft 7kts
15-Apr-19 18:35 39.505270 -119.772753 196 4413ft 0kts
15-Apr-19 18:36 39.505270 -119.772753 196 4413ft 0kts

Navigation Log

Ident Type
Flight plan parsing failed, navigation log unavailable